Time;durP1;ratioP1;P1;durP2;ratioP2;P2;SDS_P1;SDS_P2;PMS_P1;PMS_P2;Temp;Humidity;BMP_temperature;BMP_pressure;BME280_temperature;BME280_humidity;BME280_pressure;Samples;Min_cycle;Max_cycle;Signal;HPM_P1;HPM_P2
2022/06/23 00:02:27;;;;;;;2.17;1.97;;;26.10;51.60;;;;;;5096694;27;20578;-50
2022/06/23 00:05:16;;;;;;;2.07;1.87;;;26.10;51.60;;;;;;5079940;28;20583;-51
2022/06/23 00:08:00;;;;;;;2.50;1.70;;;26.10;51.70;;;;;;5065424;27;20625;-51
2022/06/23 00:10:46;;;;;;;1.60;1.50;;;26.10;51.60;;;;;;5123933;27;20578;-50
2022/06/23 00:13:35;;;;;;;2.07;1.87;;;26.10;51.70;;;;;;5050047;27;20555;-50
2022/06/23 00:16:24;;;;;;;1.93;1.83;;;26.10;51.70;;;;;;5125667;27;21070;-50
2022/06/23 00:19:07;;;;;;;2.27;2.07;;;26.10;51.70;;;;;;5140369;27;20570;-50
2022/06/23 00:21:50;;;;;;;2.40;2.20;;;26.10;51.70;;;;;;5111428;27;1229936;-50
2022/06/23 00:24:32;;;;;;;1.83;1.73;;;26.10;51.70;;;;;;5127889;27;20540;-52
2022/06/23 00:27:16;;;;;;;1.90;1.80;;;26.10;51.70;;;;;;5094350;27;20541;-50
2022/06/23 00:30:01;;;;;;;1.90;1.80;;;26.10;51.70;;;;;;5126079;27;21059;-49
2022/06/23 00:32:43;;;;;;;2.30;1.87;;;26.10;51.80;;;;;;5100647;27;20605;-51
2022/06/23 00:35:28;;;;;;;1.50;1.40;;;26.10;51.80;;;;;;5098421;27;20604;-50
2022/06/23 00:38:20;;;;;;;1.80;1.70;;;26.10;51.90;;;;;;5115330;27;20566;-52
2022/06/23 00:41:02;;;;;;;2.07;1.87;;;26.10;51.80;;;;;;5087778;28;20523;-51
2022/06/23 00:43:45;;;;;;;2.07;1.87;;;26.10;51.80;;;;;;5124769;27;20592;-50
2022/06/23 00:46:32;;;;;;;1.90;1.77;;;26.10;51.80;;;;;;5106408;27;20612;-50
2022/06/23 00:49:24;;;;;;;2.13;1.93;;;26.10;51.80;;;;;;5087331;28;20519;-49
2022/06/23 00:52:15;;;;;;;2.30;2.10;;;26.10;51.80;;;;;;5097644;27;1510621;-51
2022/06/23 00:55:04;;;;;;;2.10;1.60;;;26.10;51.90;;;;;;5122260;27;20588;-50
2022/06/23 00:57:49;;;;;;;2.23;2.03;;;26.10;51.90;;;;;;5067640;27;20571;-50
2022/06/23 01:00:35;;;;;;;3.23;1.93;;;26.10;51.80;;;;;;5097269;27;21092;-49
2022/06/23 01:03:22;;;;;;;2.40;2.20;;;26.10;51.80;;;;;;5088141;27;20542;-51
2022/06/23 01:06:13;;;;;;;2.67;2.30;;;26.10;51.80;;;;;;5079913;27;20666;-49
2022/06/23 01:08:59;;;;;;;2.33;2.20;;;26.10;51.80;;;;;;5109040;27;20523;-50
2022/06/23 01:11:43;;;;;;;1.90;1.80;;;26.10;51.80;;;;;;5118246;27;20542;-49
2022/06/23 01:14:34;;;;;;;2.50;2.30;;;26.10;51.80;;;;;;5118590;27;20623;-51
2022/06/23 01:17:21;;;;;;;2.03;1.93;;;26.10;51.80;;;;;;5093997;27;20610;-49
2022/06/23 01:20:19;;;;;;;2.07;1.87;;;26.10;51.90;;;;;;5128472;27;20525;-49
2022/06/23 01:23:17;;;;;;;2.17;2.00;;;26.10;52.00;;;;;;5078331;27;20550;-50
2022/06/23 01:26:25;;;;;;;2.93;2.20;;;26.10;53.10;;;;;;5141591;27;20587;-53
2022/06/23 01:29:14;;;;;;;2.03;1.90;;;26.10;51.90;;;;;;5106991;27;20514;-51
2022/06/23 01:31:59;;;;;;;2.37;2.13;;;26.10;51.90;;;;;;5102614;27;20637;-51
2022/06/23 01:34:52;;;;;;;2.80;2.07;;;26.10;51.80;;;;;;5177484;27;20536;-50
2022/06/23 01:37:40;;;;;;;2.07;1.87;;;26.10;51.80;;;;;;5136717;27;20607;-51
2022/06/23 01:40:24;;;;;;;1.87;1.70;;;26.10;51.80;;;;;;5114876;27;20526;-50
2022/06/23 01:43:13;;;;;;;2.03;1.80;;;26.10;51.80;;;;;;5055964;28;20550;-50
2022/06/23 01:45:58;;;;;;;2.00;1.90;;;26.10;51.70;;;;;;5097632;27;21056;-50
2022/06/23 01:48:54;;;;;;;1.97;1.77;;;26.10;51.70;;;;;;5148837;27;20531;-51
2022/06/23 01:51:46;;;;;;;2.03;1.83;;;26.10;51.80;;;;;;5114258;27;20939;-50
2022/06/23 01:54:28;;;;;;;2.10;1.97;;;26.10;51.70;;;;;;5101868;27;20593;-51
2022/06/23 01:57:21;;;;;;;1.43;1.33;;;26.10;51.80;;;;;;5103860;27;20574;-50
2022/06/23 02:00:10;;;;;;;1.90;1.80;;;26.00;51.80;;;;;;5079622;28;20931;-50
2022/06/23 02:02:58;;;;;;;2.30;1.73;;;26.10;51.80;;;;;;5101290;27;20597;-50
2022/06/23 02:05:47;;;;;;;1.87;1.77;;;26.10;51.90;;;;;;5062655;28;20598;-50
2022/06/23 02:08:35;;;;;;;1.97;1.87;;;26.00;53.00;;;;;;5070554;27;21121;-51
2022/06/23 02:11:25;;;;;;;2.30;2.07;;;26.00;51.80;;;;;;5086170;28;21206;-48
2022/06/23 02:14:15;;;;;;;2.10;1.90;;;26.00;51.80;;;;;;5126207;27;20561;-49
2022/06/23 02:17:03;;;;;;;3.03;2.47;;;26.00;51.80;;;;;;5075741;28;20534;-50
2022/06/23 02:19:48;;;;;;;2.13;1.93;;;26.00;51.60;;;;;;5087360;28;20524;-49
2022/06/23 02:22:35;;;;;;;1.97;1.87;;;26.00;51.70;;;;;;5062509;27;20539;-51
2022/06/23 02:25:22;;;;;;;2.23;2.03;;;26.00;51.80;;;;;;5017648;28;20970;-50
2022/06/23 02:28:14;;;;;;;2.40;2.27;;;26.00;51.80;;;;;;5097366;27;20601;-50
2022/06/23 02:31:04;;;;;;;1.90;1.80;;;26.00;51.80;;;;;;5079674;28;20527;-49
2022/06/23 02:33:53;;;;;;;2.00;1.73;;;26.00;51.90;;;;;;5102576;27;20964;-52
2022/06/23 02:39:39;;;;;;;1.70;1.60;;;26.00;51.80;;;;;;5129604;27;20956;-51
2022/06/23 02:42:27;;;;;;;2.37;2.17;;;26.00;51.80;;;;;;5070399;27;20537;-50
2022/06/23 02:45:24;;;;;;;3.43;1.80;;;26.00;51.90;;;;;;5099319;27;20546;-49
2022/06/23 02:48:24;;;;;;;2.13;1.90;;;26.00;52.10;;;;;;5057001;27;20534;-49
2022/06/23 02:51:23;;;;;;;1.93;1.73;;;26.00;51.80;;;;;;5105535;27;20967;-52
2022/06/23 02:54:24;;;;;;;1.77;1.67;;;26.00;51.80;;;;;;5084021;28;21064;-49
2022/06/23 02:57:31;;;;;;;2.03;1.60;;;26.00;51.80;;;;;;5075865;27;21187;-49
2022/06/23 03:00:21;;;;;;;2.00;1.87;;;26.00;51.80;;;;;;5081843;28;20932;-50
2022/06/23 03:03:09;;;;;;;2.20;1.73;;;26.00;51.80;;;;;;5076871;27;1589804;-51
2022/06/23 03:05:55;;;;;;;1.63;1.53;;;26.00;51.80;;;;;;5074781;28;20587;-50
2022/06/23 03:08:45;;;;;;;2.10;1.90;;;26.00;53.00;;;;;;5067399;27;20541;-50
2022/06/23 03:11:53;;;;;;;1.97;1.80;;;26.00;51.80;;;;;;5084492;28;20527;-49
2022/06/23 03:14:48;;;;;;;2.23;2.03;;;26.00;51.80;;;;;;5060281;28;20955;-50
2022/06/23 03:17:37;;;;;;;2.07;1.97;;;26.00;51.90;;;;;;5066817;28;20890;-50
2022/06/23 03:20:32;;;;;;;1.63;1.53;;;26.00;51.90;;;;;;5085545;28;20524;-49
2022/06/23 03:23:21;;;;;;;2.33;1.90;;;26.00;51.70;;;;;;5056241;27;20604;-50
2022/06/23 03:26:15;;;;;;;1.73;1.63;;;26.00;51.70;;;;;;5072440;28;20594;-50
2022/06/23 03:29:05;;;;;;;2.00;1.90;;;26.00;51.80;;;;;;5087500;28;20531;-50
2022/06/23 03:31:53;;;;;;;1.53;1.43;;;26.00;51.80;;;;;;5080040;27;21071;-51
2022/06/23 03:34:39;;;;;;;1.80;1.70;;;26.00;51.70;;;;;;5068856;27;20606;-49
2022/06/23 03:37:23;;;;;;;1.87;1.77;;;26.00;51.60;;;;;;5067081;28;20608;-49
2022/06/23 03:43:26;;;;;;;2.60;2.00;;;25.90;51.50;;;;;;5054382;27;20580;-50
2022/06/23 03:46:17;;;;;;;2.20;2.10;;;25.90;51.30;;;;;;5103484;27;20526;-50
2022/06/23 03:49:02;;;;;;;2.10;2.00;;;25.90;51.50;;;;;;5128485;27;20578;-51
2022/06/23 03:51:49;;;;;;;4.00;2.30;;;25.90;51.50;;;;;;5068243;27;20607;-49
2022/06/23 03:54:48;;;;;;;2.83;2.13;;;25.90;51.40;;;;;;5088842;27;20528;-50
2022/06/23 03:57:34;;;;;;;1.90;1.80;;;25.90;51.30;;;;;;5096401;27;20978;-47
2022/06/23 04:00:23;;;;;;;2.37;2.27;;;25.90;51.30;;;;;;5133028;27;20563;-50
2022/06/23 04:03:22;;;;;;;2.03;1.80;;;25.90;51.50;;;;;;5075956;27;20542;-49
2022/06/23 04:06:21;;;;;;;3.30;2.00;;;25.90;51.50;;;;;;5081815;27;20539;-49
2022/06/23 04:09:10;;;;;;;2.00;1.90;;;25.90;51.40;;;;;;5087424;28;21042;-48
2022/06/23 04:11:59;;;;;;;2.00;1.90;;;25.90;51.30;;;;;;5077224;27;20631;-49
2022/06/23 04:14:49;;;;;;;2.70;2.50;;;25.90;51.30;;;;;;5073664;27;20619;-49
2022/06/23 04:17:41;;;;;;;2.40;2.20;;;25.90;51.00;;;;;;5084587;27;20540;-49
2022/06/23 04:20:29;;;;;;;2.50;2.30;;;25.80;50.90;;;;;;5085435;28;20532;-53
2022/06/23 04:23:19;;;;;;;2.20;2.10;;;25.80;51.00;;;;;;5080921;27;20594;-49
2022/06/23 04:26:05;;;;;;;3.37;2.87;;;25.80;51.10;;;;;;5075096;28;21081;-49
2022/06/23 04:28:47;;;;;;;2.83;2.40;;;25.80;51.00;;;;;;5108379;27;1331656;-49
2022/06/23 04:31:34;;;;;;;2.13;2.03;;;25.80;51.20;;;;;;5151516;27;20634;-51
2022/06/23 04:34:21;;;;;;;3.30;2.53;;;25.70;51.10;;;;;;5127420;27;20584;-49
2022/06/23 04:37:05;;;;;;;2.80;2.60;;;25.70;51.20;;;;;;5071575;28;20550;-49
2022/06/23 04:39:53;;;;;;;4.03;2.37;;;25.70;51.30;;;;;;5135917;22;20563;-49
2022/06/23 04:42:38;;;;;;;2.67;2.47;;;25.70;51.00;;;;;;5065496;27;20703;-47
2022/06/23 04:45:44;;;;;;;2.77;2.40;;;25.70;51.30;;;;;;5082893;27;20535;-49
2022/06/23 04:48:31;;;;;;;2.40;2.20;;;25.70;51.10;;;;;;5049961;27;20700;-48
2022/06/23 04:51:22;;;;;;;3.73;2.30;;;25.70;51.10;;;;;;5124908;27;20525;-50
2022/06/23 04:54:14;;;;;;;3.97;2.97;;;25.70;51.30;;;;;;5127644;27;20583;-47
2022/06/23 04:57:02;;;;;;;2.83;2.63;;;25.70;51.10;;;;;;5098222;27;20530;-51
2022/06/23 04:59:45;;;;;;;2.60;2.40;;;25.70;51.10;;;;;;5124985;27;21176;-48
2022/06/23 05:02:32;;;;;;;2.47;2.27;;;25.70;51.40;;;;;;5098407;27;20550;-48
2022/06/23 05:05:19;;;;;;;2.80;2.23;;;25.70;51.30;;;;;;5072940;27;21063;-49
2022/06/23 05:08:03;;;;;;;2.10;2.00;;;25.70;51.30;;;;;;5130300;27;20538;-48
2022/06/23 05:10:49;;;;;;;2.80;2.60;;;25.70;51.40;;;;;;5079468;28;20521;-49
2022/06/23 05:13:40;;;;;;;2.93;2.60;;;25.70;51.40;;;;;;5075131;27;21117;-49
2022/06/23 05:16:27;;;;;;;2.67;2.47;;;25.70;51.40;;;;;;5087619;28;21038;-48
2022/06/23 05:19:13;;;;;;;2.73;2.50;;;25.70;51.30;;;;;;5088574;27;20515;-50
2022/06/23 05:21:57;;;;;;;2.50;2.23;;;25.70;51.40;;;;;;5075525;27;20668;-49
2022/06/23 05:24:41;;;;;;;2.77;2.57;;;25.70;51.50;;;;;;5068668;27;20938;-48
2022/06/23 05:27:26;;;;;;;2.43;2.33;;;25.70;51.40;;;;;;5099885;27;20594;-50
2022/06/23 05:30:24;;;;;;;4.13;3.80;;;25.70;51.60;;;;;;5126803;27;20524;-50
2022/06/23 05:33:13;;;;;;;5.13;3.00;;;25.70;51.60;;;;;;5057486;27;20600;-48
2022/06/23 05:35:59;;;;;;;3.23;2.70;;;25.70;51.70;;;;;;5009709;28;20622;-50
2022/06/23 05:38:46;;;;;;;5.20;3.70;;;25.70;52.00;;;;;;5079885;27;20559;-49
2022/06/23 05:41:35;;;;;;;5.20;3.03;;;25.70;52.00;;;;;;5128467;27;20587;-51
2022/06/23 05:44:20;;;;;;;3.80;3.50;;;25.80;51.80;;;;;;5125918;27;20541;-50
2022/06/23 05:47:03;;;;;;;4.63;3.80;;;25.80;51.70;;;;;;5076115;27;20539;-49
2022/06/23 05:49:47;;;;;;;5.03;4.37;;;25.80;51.70;;;;;;5092372;27;20554;-51
2022/06/23 05:52:33;;;;;;;4.43;3.90;;;25.80;51.80;;;;;;5077798;27;20538;-49
2022/06/23 05:55:21;;;;;;;5.40;4.90;;;25.70;51.90;;;;;;5073035;27;20590;-49
2022/06/23 05:58:11;;;;;;;5.40;4.90;;;25.70;52.40;;;;;;5073733;27;20701;-50
2022/06/23 06:01:00;;;;;;;5.17;4.77;;;25.70;52.50;;;;;;5070546;28;20536;-51
2022/06/23 06:03:46;;;;;;;4.93;4.53;;;25.70;52.50;;;;;;5054449;27;1977130;-52
2022/06/23 06:06:31;;;;;;;5.90;5.40;;;25.70;53.00;;;;;;5121578;27;20595;-50
2022/06/23 06:12:20;;;;;;;4.80;4.40;;;25.70;53.00;;;;;;5071254;27;20545;-49
2022/06/23 06:15:04;;;;;;;5.40;4.90;;;25.70;53.30;;;;;;5092969;27;20617;-49
2022/06/23 06:17:46;;;;;;;4.70;4.27;;;25.70;53.40;;;;;;5050738;27;20539;-49
2022/06/23 06:20:28;;;;;;;7.40;4.33;;;25.70;53.40;;;;;;5124745;27;21073;-50
2022/06/23 06:23:15;;;;;;;5.27;4.20;;;25.70;53.60;;;;;;5071768;27;20579;-50
2022/06/23 06:25:57;;;;;;;4.70;4.30;;;25.70;53.80;;;;;;5084765;28;20539;-49
2022/06/23 06:28:38;;;;;;;6.20;4.33;;;25.70;53.70;;;;;;5065762;28;20614;-48
2022/06/23 06:31:23;;;;;;;4.93;4.43;;;25.70;54.00;;;;;;5104372;27;20555;-49
2022/06/23 06:34:10;;;;;;;5.23;4.83;;;25.70;54.30;;;;;;5083715;28;20536;-48
2022/06/23 06:36:53;;;;;;;4.27;3.87;;;25.70;54.10;;;;;;5082763;27;21098;-47
2022/06/23 06:39:40;;;;;;;4.67;4.03;;;25.70;53.90;;;;;;5108810;27;20586;-47
2022/06/23 06:42:25;;;;;;;5.30;4.23;;;25.70;54.30;;;;;;5071309;27;20588;-49
2022/06/23 06:45:20;;;;;;;4.17;3.87;;;25.70;54.30;;;;;;5108946;27;21091;-48
2022/06/23 06:48:01;;;;;;;4.13;3.73;;;25.70;53.90;;;;;;5118881;27;20591;-51
2022/06/23 06:50:48;;;;;;;4.53;4.13;;;25.70;54.40;;;;;;5098425;27;20536;-49
2022/06/23 06:53:34;;;;;;;5.00;4.23;;;25.70;54.30;;;;;;5052096;27;20624;-49
2022/06/23 06:56:19;;;;;;;4.80;4.40;;;25.70;54.40;;;;;;5126503;27;20521;-48
2022/06/23 06:59:06;;;;;;;5.57;4.50;;;25.70;54.40;;;;;;5085617;27;20589;-51
2022/06/23 07:01:54;;;;;;;3.80;3.30;;;25.70;54.40;;;;;;5126847;27;21054;-51
2022/06/23 07:04:42;;;;;;;4.07;3.67;;;25.70;54.40;;;;;;5118103;27;20592;-49
2022/06/23 07:07:27;;;;;;;3.77;3.50;;;25.70;54.40;;;;;;5074465;27;20545;-49
2022/06/23 07:10:17;;;;;;;3.77;3.47;;;25.70;54.40;;;;;;5128624;27;20510;-48
2022/06/23 07:13:02;;;;;;;5.57;3.60;;;25.70;54.30;;;;;;5085683;27;21183;-48
2022/06/23 07:15:49;;;;;;;5.28;4.30;;;25.70;54.40;;;;;;5076909;27;20477;-50
2022/06/23 07:18:34;;;;;;;3.97;3.67;;;25.70;54.40;;;;;;5074796;27;20541;-49
2022/06/23 07:21:22;;;;;;;4.27;3.90;;;25.80;54.30;;;;;;5083912;28;20562;-49
2022/06/23 07:24:12;;;;;;;4.87;3.87;;;25.70;54.30;;;;;;5128015;27;20545;-47
2022/06/23 07:27:01;;;;;;;2.90;2.70;;;25.70;54.20;;;;;;5072653;28;20951;-48
2022/06/23 07:29:49;;;;;;;3.83;3.53;;;25.70;54.00;;;;;;5101803;27;20585;-48
2022/06/23 07:32:41;;;;;;;6.50;4.50;;;25.70;54.00;;;;;;5056162;27;21128;-48
2022/06/23 07:35:32;;;;;;;4.40;2.70;;;25.70;54.00;;;;;;5070755;27;20529;-52
2022/06/23 07:38:21;;;;;;;3.90;3.37;;;25.70;53.90;;;;;;5090971;27;20613;-50
2022/06/23 07:41:08;;;;;;;3.20;2.90;;;25.70;53.90;;;;;;5144109;27;20527;-50
2022/06/23 07:43:59;;;;;;;3.20;3.00;;;25.70;53.80;;;;;;5126284;27;20606;-51
2022/06/23 07:46:39;;;;;;;3.13;2.93;;;25.70;53.80;;;;;;5098306;27;1286982;-49
2022/06/23 07:49:20;;;;;;;3.50;3.20;;;25.70;53.80;;;;;;5087466;28;21131;-49
2022/06/23 07:52:02;;;;;;;3.43;3.20;;;25.70;53.90;;;;;;5063709;28;20544;-49
2022/06/23 07:54:49;;;;;;;3.53;3.23;;;25.70;53.80;;;;;;5081449;27;20552;-48
2022/06/23 07:57:33;;;;;;;3.50;3.20;;;25.70;53.70;;;;;;5067241;27;20538;-50
2022/06/23 08:00:19;;;;;;;3.83;3.40;;;25.70;53.80;;;;;;5143646;27;20583;-49
2022/06/23 08:03:04;;;;;;;4.13;3.50;;;25.70;53.70;;;;;;5102689;27;20531;-51
2022/06/23 08:05:54;;;;;;;3.63;3.33;;;25.70;53.70;;;;;;5126552;27;20320;-51
2022/06/23 08:08:43;;;;;;;3.37;2.93;;;25.70;53.70;;;;;;5067343;28;20536;-49
2022/06/23 08:16:49;;;;;;;3.27;3.07;;;25.70;53.80;;;;;;5094832;27;20617;-47
2022/06/23 08:18:02;;;;;;;3.37;2.80;;;25.70;53.70;;;;;;5089259;27;20585;-50
2022/06/23 08:20:54;;;;;;;4.40;3.30;;;25.70;53.70;;;;;;5124329;27;1219274;-49
2022/06/23 08:23:41;;;;;;;3.20;2.90;;;25.70;53.70;;;;;;5070122;27;20602;-48
2022/06/23 08:26:23;;;;;;;3.13;2.93;;;25.70;53.70;;;;;;5131481;27;20584;-47
2022/06/23 08:29:15;;;;;;;3.00;2.80;;;25.70;53.80;;;;;;5091192;27;20542;-49
2022/06/23 08:31:59;;;;;;;11.80;5.43;;;25.70;53.90;;;;;;5071699;27;20599;-50
2022/06/23 08:34:46;;;;;;;12.20;4.30;;;25.80;54.40;;;;;;5098475;27;20549;-48
2022/06/23 08:37:33;;;;;;;5.30;4.30;;;25.80;56.80;;;;;;5117276;27;1295689;-47
2022/06/23 08:40:23;;;;;;;4.20;3.80;;;25.80;55.70;;;;;;5088679;27;20521;-49
2022/06/23 08:43:15;;;;;;;7.20;4.10;;;25.80;55.30;;;;;;5071634;27;21093;-49
2022/06/23 08:46:06;;;;;;;5.07;3.67;;;25.80;54.80;;;;;;5069452;28;21161;-49
2022/06/23 08:49:03;;;;;;;3.87;3.43;;;25.80;54.50;;;;;;5086160;27;20585;-49
2022/06/23 08:51:51;;;;;;;3.90;3.60;;;25.80;54.50;;;;;;5096705;27;20532;-48
2022/06/23 08:54:38;;;;;;;5.73;3.40;;;25.80;54.40;;;;;;5079456;28;20599;-47
2022/06/23 08:57:27;;;;;;;4.73;3.13;;;25.80;54.50;;;;;;5101717;27;20817;-49
2022/06/23 09:00:16;;;;;;;4.17;3.77;;;25.80;54.40;;;;;;5123370;27;20583;-48
2022/06/23 09:03:01;;;;;;;4.60;3.50;;;25.80;54.40;;;;;;5086432;27;20540;-49
2022/06/23 09:05:56;;;;;;;3.47;3.20;;;25.80;54.40;;;;;;5083645;27;20597;-49
2022/06/23 09:08:43;;;;;;;4.23;3.40;;;25.80;54.50;;;;;;5050407;27;20554;-49
2022/06/23 09:11:52;;;;;;;6.30;3.60;;;25.80;54.40;;;;;;5084727;27;20973;-47
2022/06/23 09:15:19;;;;;;;5.67;3.93;;;25.80;54.40;;;;;;5095238;27;20537;-48
2022/06/23 09:18:21;;;;;;;3.93;3.50;;;25.80;54.40;;;;;;5085612;27;21085;-48
2022/06/23 09:21:25;;;;;;;5.03;3.20;;;25.80;54.40;;;;;;5086746;27;20593;-49
2022/06/23 09:24:47;;;;;;;5.07;3.60;;;25.80;54.50;;;;;;5083801;27;20529;-49
2022/06/23 09:27:52;;;;;;;5.87;3.10;;;25.80;54.40;;;;;;5095899;27;20555;-47
2022/06/23 09:30:42;;;;;;;3.80;3.30;;;25.80;54.40;;;;;;5130936;27;20940;-51
2022/06/23 09:33:37;;;;;;;2.90;2.70;;;25.80;54.40;;;;;;5070130;27;20546;-49
2022/06/23 09:36:44;;;;;;;3.60;3.30;;;25.80;54.40;;;;;;5084439;28;20536;-48
2022/06/23 09:39:56;;;;;;;5.60;3.50;;;25.80;54.50;;;;;;5087318;28;20509;-51
2022/06/23 09:43:03;;;;;;;4.50;3.03;;;25.80;54.40;;;;;;5068144;28;20544;-48
2022/06/23 09:46:00;;;;;;;4.37;3.50;;;25.80;54.50;;;;;;5075854;27;20554;-51
2022/06/23 09:49:06;;;;;;;5.60;3.97;;;25.80;54.50;;;;;;5107136;27;20542;-50
2022/06/23 09:52:11;;;;;;;4.67;2.90;;;25.80;54.40;;;;;;5067561;28;20530;-50
2022/06/23 09:55:38;;;;;;;4.80;3.23;;;25.80;54.50;;;;;;5083459;28;20521;-48
2022/06/23 09:58:38;;;;;;;4.40;3.10;;;25.80;54.40;;;;;;5059209;27;20579;-49
2022/06/23 10:01:32;;;;;;;3.60;3.30;;;25.80;54.50;;;;;;5120985;27;20592;-49
2022/06/23 10:04:26;;;;;;;5.13;3.80;;;25.80;54.60;;;;;;5127635;27;20926;-47
2022/06/23 10:07:23;;;;;;;4.00;2.93;;;25.80;54.60;;;;;;5082317;27;20539;-49
2022/06/23 10:10:17;;;;;;;5.30;3.10;;;25.80;54.50;;;;;;5086299;27;21170;-49
2022/06/23 10:13:23;;;;;;;5.30;2.80;;;25.80;54.60;;;;;;5080487;27;20771;-49
2022/06/23 10:16:28;;;;;;;4.90;2.60;;;25.80;54.70;;;;;;5059022;27;20601;-49
2022/06/23 10:19:31;;;;;;;4.97;3.00;;;25.80;54.80;;;;;;5087424;27;20946;-50
2022/06/23 10:22:32;;;;;;;3.20;2.90;;;25.80;54.70;;;;;;5069644;27;20605;-48
2022/06/23 10:25:28;;;;;;;3.50;3.20;;;25.80;54.70;;;;;;5115489;27;20659;-50
2022/06/23 10:28:22;;;;;;;3.27;2.70;;;25.80;54.70;;;;;;5047875;27;20977;-50
2022/06/23 10:31:12;;;;;;;4.17;2.70;;;25.90;54.70;;;;;;5080883;28;20945;-48
2022/06/23 10:34:20;;;;;;;3.80;2.97;;;25.90;54.70;;;;;;5126938;27;21547;-48
2022/06/23 10:37:16;;;;;;;2.90;2.70;;;25.90;54.80;;;;;;5106471;27;20961;-50
2022/06/23 10:40:14;;;;;;;4.17;2.77;;;25.90;54.80;;;;;;5106042;27;20593;-50
2022/06/23 10:43:36;;;;;;;4.23;3.00;;;25.90;54.70;;;;;;5118987;27;20540;-48
2022/06/23 10:46:23;;;;;;;3.33;2.87;;;25.90;54.70;;;;;;5064692;28;20533;-48
2022/06/23 10:49:19;;;;;;;3.20;2.43;;;25.90;54.80;;;;;;5087775;28;20602;-49
2022/06/23 10:52:42;;;;;;;3.40;3.03;;;25.90;54.80;;;;;;5073946;27;20984;-49
2022/06/23 10:55:46;;;;;;;4.40;3.10;;;25.90;54.80;;;;;;5103191;22;20582;-48
2022/06/23 10:58:59;;;;;;;3.50;2.90;;;25.90;54.50;;;;;;5063220;27;21170;-47
2022/06/23 11:01:59;;;;;;;3.33;3.03;;;25.90;54.60;;;;;;5122304;27;20539;-49
2022/06/23 11:05:02;;;;;;;3.50;3.00;;;25.90;54.50;;;;;;5119792;27;20950;-48
2022/06/23 11:07:57;;;;;;;4.03;2.50;;;25.90;54.50;;;;;;5084455;27;20537;-47
2022/06/23 11:11:04;;;;;;;4.73;2.90;;;25.90;54.50;;;;;;5108258;27;20518;-48
2022/06/23 11:13:56;;;;;;;3.73;3.43;;;26.00;54.60;;;;;;5107686;27;20530;-47
2022/06/23 11:16:47;;;;;;;3.40;3.10;;;26.00;54.60;;;;;;5079819;28;20539;-49
2022/06/23 11:19:44;;;;;;;2.73;2.53;;;26.00;54.60;;;;;;5086985;27;20569;-47
2022/06/23 11:22:44;;;;;;;3.90;2.60;;;26.00;54.60;;;;;;5067761;28;20530;-48
2022/06/23 11:25:45;;;;;;;6.07;3.10;;;26.00;54.70;;;;;;5107059;27;20584;-50
2022/06/23 11:28:52;;;;;;;3.33;2.97;;;26.00;54.60;;;;;;5107944;27;20578;-49
2022/06/23 11:31:45;;;;;;;3.97;2.70;;;26.00;54.60;;;;;;5124439;27;21116;-48
2022/06/23 11:34:43;;;;;;;2.60;2.30;;;26.00;54.60;;;;;;5083105;28;20548;-49
2022/06/23 11:37:46;;;;;;;3.53;2.50;;;26.00;54.70;;;;;;5087136;27;20405;-47
2022/06/23 11:43:41;;;;;;;4.17;3.10;;;26.00;54.60;;;;;;5069249;27;20549;-49
2022/06/23 11:46:28;;;;;;;2.67;2.47;;;26.00;54.60;;;;;;5020331;28;20536;-47
2022/06/23 11:49:30;;;;;;;3.10;2.80;;;26.00;54.60;;;;;;5088029;28;20569;-48
2022/06/23 11:52:34;;;;;;;3.80;2.50;;;26.10;54.60;;;;;;5070529;28;20545;-47
2022/06/23 11:55:26;;;;;;;3.10;2.40;;;26.10;54.60;;;;;;5133564;27;20582;-48
2022/06/23 11:58:40;;;;;;;3.00;2.53;;;26.10;54.60;;;;;;5075002;27;20631;-49
2022/06/23 12:01:22;;;;;;;4.60;2.57;;;26.10;54.60;;;;;;5100547;27;20530;-48
2022/06/23 12:04:35;;;;;;;4.37;3.27;;;26.10;54.60;;;;;;5089030;27;20627;-48
2022/06/23 12:07:37;;;;;;;3.53;2.67;;;26.10;54.70;;;;;;5068418;27;20899;-48
2022/06/23 12:10:21;;;;;;;2.73;2.33;;;26.10;54.60;;;;;;5149155;27;20528;-49
2022/06/23 12:13:07;;;;;;;3.53;2.93;;;26.10;54.60;;;;;;5112750;27;20534;-51
2022/06/23 12:15:51;;;;;;;2.87;2.67;;;26.10;54.60;;;;;;5068887;27;20575;-48
2022/06/23 12:18:40;;;;;;;3.00;2.80;;;26.10;54.60;;;;;;5070260;27;20541;-48
2022/06/23 12:21:31;;;;;;;3.13;2.60;;;26.10;54.60;;;;;;5130571;27;20472;-51
2022/06/23 12:24:24;;;;;;;2.80;2.40;;;26.10;54.60;;;;;;5066116;27;20529;-46
2022/06/23 12:27:15;;;;;;;3.30;2.90;;;26.10;54.60;;;;;;5094122;27;21077;-47
2022/06/23 12:30:05;;;;;;;3.43;2.97;;;26.10;54.60;;;;;;5084873;28;20926;-48
2022/06/23 12:32:55;;;;;;;3.00;2.40;;;26.20;54.70;;;;;;5111069;27;20947;-47
2022/06/23 12:35:47;;;;;;;3.57;3.10;;;26.20;54.70;;;;;;5084494;28;20566;-46
2022/06/23 12:38:32;;;;;;;4.40;3.10;;;26.20;54.70;;;;;;5079831;27;20547;-47
2022/06/23 12:41:19;;;;;;;2.80;1.80;;;26.20;54.70;;;;;;5078396;27;20581;-48
2022/06/23 12:44:16;;;;;;;2.57;2.33;;;26.20;54.70;;;;;;5129142;27;21041;-50
2022/06/23 12:47:09;;;;;;;3.23;2.70;;;26.20;54.70;;;;;;5076694;28;20541;-47
2022/06/23 12:50:06;;;;;;;2.70;2.50;;;26.20;54.70;;;;;;5087634;28;20550;-48
2022/06/23 12:52:58;;;;;;;2.70;2.50;;;26.20;55.90;;;;;;5090701;27;20619;-47
2022/06/23 12:55:54;;;;;;;2.40;2.20;;;26.20;54.70;;;;;;5066808;27;20586;-48
2022/06/23 12:58:45;;;;;;;2.40;2.07;;;26.30;54.70;;;;;;5068752;27;20556;-47
2022/06/23 13:01:38;;;;;;;2.33;2.13;;;26.30;54.70;;;;;;5112857;27;20525;-51
2022/06/23 13:04:31;;;;;;;2.70;2.50;;;26.30;54.60;;;;;;5089772;27;20532;-49
2022/06/23 13:07:19;;;;;;;2.73;2.20;;;26.30;54.70;;;;;;5071703;27;20596;-48
2022/06/23 13:10:06;;;;;;;2.53;2.10;;;26.30;54.60;;;;;;5087197;28;20945;-47
2022/06/23 13:12:58;;;;;;;3.53;2.40;;;26.30;54.50;;;;;;5102837;27;20621;-51
2022/06/23 13:15:48;;;;;;;2.57;2.37;;;26.30;54.50;;;;;;5152161;27;20976;-46
2022/06/23 13:18:37;;;;;;;3.90;2.37;;;26.30;54.40;;;;;;5109193;27;20568;-46
2022/06/23 13:21:23;;;;;;;2.87;2.33;;;26.30;54.50;;;;;;5109782;27;20604;-51
2022/06/23 13:24:09;;;;;;;2.47;2.27;;;26.30;54.50;;;;;;5093234;27;21013;-47
2022/06/23 13:27:03;;;;;;;4.93;2.10;;;26.30;54.50;;;;;;5105070;27;1231527;-48
2022/06/23 13:29:54;;;;;;;3.77;2.73;;;26.30;54.30;;;;;;5084609;28;20527;-48
2022/06/23 13:32:41;;;;;;;3.97;2.27;;;26.40;54.30;;;;;;5055752;27;20596;-47
2022/06/23 13:35:29;;;;;;;3.00;2.37;;;26.40;54.20;;;;;;5082558;27;20583;-47
2022/06/23 13:38:20;;;;;;;3.27;1.93;;;26.40;54.10;;;;;;5071928;27;21384;-48
2022/06/23 13:41:10;;;;;;;3.13;2.10;;;26.40;54.20;;;;;;5107889;27;20993;-48
2022/06/23 13:44:03;;;;;;;2.63;2.43;;;26.40;54.10;;;;;;5086390;28;20530;-48
2022/06/23 13:46:54;;;;;;;2.80;2.40;;;26.40;54.10;;;;;;5043329;27;21098;-49
2022/06/23 13:49:41;;;;;;;2.30;2.13;;;26.40;54.20;;;;;;5108153;27;20539;-49
2022/06/23 13:52:27;;;;;;;2.27;2.07;;;26.40;54.10;;;;;;5069971;27;20596;-47
2022/06/23 13:55:16;;;;;;;3.60;2.20;;;26.40;54.00;;;;;;5092726;27;21200;-49
2022/06/23 13:58:06;;;;;;;2.37;2.17;;;26.40;53.90;;;;;;5074591;27;20532;-49
2022/06/23 14:00:53;;;;;;;4.00;2.73;;;26.40;53.80;;;;;;5109976;27;20615;-49
2022/06/23 14:03:44;;;;;;;2.43;2.23;;;26.40;53.90;;;;;;5075442;27;20762;-48
2022/06/23 14:06:33;;;;;;;2.33;2.13;;;26.50;54.20;;;;;;5084628;28;20532;-48
2022/06/23 14:09:19;;;;;;;2.50;2.30;;;26.50;54.20;;;;;;5113517;27;20570;-48
2022/06/23 14:12:07;;;;;;;2.30;2.10;;;26.50;54.20;;;;;;5077040;28;20596;-48
2022/06/23 14:14:54;;;;;;;2.23;2.03;;;26.50;54.20;;;;;;5070751;27;20570;-49
2022/06/23 14:17:43;;;;;;;3.63;2.23;;;26.50;54.20;;;;;;5078685;27;20528;-49
2022/06/23 14:20:34;;;;;;;3.50;2.10;;;26.50;54.20;;;;;;5126084;27;20574;-51
2022/06/23 14:23:21;;;;;;;2.40;2.20;;;26.50;54.30;;;;;;5040305;28;20547;-47
2022/06/23 14:26:10;;;;;;;2.40;2.20;;;26.60;54.30;;;;;;5099410;27;20604;-48
2022/06/23 14:28:59;;;;;;;3.43;2.53;;;26.50;54.20;;;;;;5084395;27;20537;-49
2022/06/23 14:31:48;;;;;;;2.53;2.03;;;26.60;54.30;;;;;;5113184;27;20513;-47
2022/06/23 14:34:34;;;;;;;2.27;2.00;;;26.60;54.20;;;;;;5079120;27;20595;-48
2022/06/23 14:37:21;;;;;;;2.20;2.03;;;26.60;54.20;;;;;;5077780;28;20546;-48
2022/06/23 14:40:09;;;;;;;2.63;2.07;;;26.60;54.20;;;;;;5087326;27;20930;-48
2022/06/23 14:43:06;;;;;;;2.55;2.35;;;26.60;54.20;;;;;;5114560;27;1204001;-48
2022/06/23 14:46:03;;;;;;;2.43;2.20;;;26.60;54.20;;;;;;5082212;27;20967;-47
2022/06/23 14:49:18;;;;;;;4.00;2.47;;;26.60;54.20;;;;;;5066712;27;20548;-50
2022/06/23 14:52:04;;;;;;;2.80;2.40;;;26.70;54.20;;;;;;5080115;28;20599;-47
2022/06/23 14:54:52;;;;;;;2.90;2.43;;;26.70;54.30;;;;;;5097463;27;21008;-47
2022/06/23 14:57:40;;;;;;;2.40;2.20;;;26.70;54.30;;;;;;5058808;28;20575;-48
2022/06/23 15:00:25;;;;;;;2.60;2.40;;;26.70;54.20;;;;;;5066716;27;20586;-47
2022/06/23 15:03:12;;;;;;;3.70;2.63;;;26.70;54.20;;;;;;5059727;27;20625;-48
2022/06/23 15:06:00;;;;;;;3.33;1.77;;;26.70;54.30;;;;;;5119409;27;20548;-48